createdAt,value
2022-09-23T00:19:38.729Z,99.90
2022-09-23T00:44:41.003Z,99.90
2022-09-23T00:47:14.115Z,99.90
2022-09-23T00:52:12.878Z,99.90
2022-09-23T01:12:09.429Z,99.90
2022-09-23T01:14:46.307Z,99.90
2022-09-23T03:03:41.628Z,99.90
2022-09-23T03:06:19.653Z,99.90
2022-09-23T03:14:03.257Z,99.90
2022-09-23T03:16:34.103Z,99.90
2022-09-23T03:19:20.021Z,99.90
2022-09-23T03:21:56.431Z,99.90
2022-09-23T03:26:53.556Z,99.90
2022-09-23T03:29:22.391Z,99.90
2022-09-23T03:36:56.181Z,99.90
2022-09-23T03:39:35.018Z,99.90
2022-09-23T03:47:03.802Z,99.90
2022-09-23T03:49:34.774Z,99.90
2022-09-23T04:28:54.451Z,99.90
2022-09-23T04:46:11.417Z,99.90
2022-09-23T04:56:04.400Z,99.90
2022-09-23T05:15:58.347Z,99.90
2022-09-23T05:20:53.951Z,99.90
2022-09-23T06:07:32.286Z,99.90
2022-09-23T06:24:43.459Z,99.90
2022-09-23T06:40:04.258Z,99.90
2022-09-23T07:26:45.666Z,99.90
2022-09-23T07:29:14.371Z,99.90
2022-09-23T07:34:10.829Z,99.90
2022-09-23T07:41:35.090Z,99.90
2022-09-23T07:46:36.301Z,99.90
2022-09-23T07:49:04.505Z,99.90
2022-09-23T07:51:35.974Z,99.90
2022-09-23T07:54:06.973Z,99.90
2022-09-23T08:01:34.023Z,99.90
2022-09-23T08:04:03.589Z,99.90
2022-09-23T08:08:58.501Z,99.90
2022-09-23T08:18:50.782Z,99.90
2022-09-23T08:21:19.736Z,99.90
2022-09-23T08:41:16.336Z,99.90
2022-09-23T08:43:49.469Z,99.90
2022-09-23T08:46:21.615Z,99.90
2022-09-23T08:48:49.139Z,99.00
2022-09-23T08:51:22.975Z,97.00
2022-09-23T08:53:52.631Z,94.00
2022-09-23T08:56:31.515Z,90.90
2022-09-23T08:59:05.081Z,90.80
2022-09-23T09:01:39.504Z,90.20
2022-09-23T09:04:18.418Z,87.50
2022-09-23T09:06:53.645Z,84.90
2022-09-23T09:09:25.407Z,83.90
2022-09-23T09:12:02.927Z,84.80
2022-09-23T09:14:36.705Z,84.10
2022-09-23T09:17:07.235Z,84.50
2022-09-23T09:19:53.501Z,93.60
2022-09-23T09:22:24.227Z,77.20
2022-09-23T09:29:50.320Z,72.80
2022-09-23T09:32:22.707Z,73.40
2022-09-23T09:34:53.979Z,69.70
2022-09-23T09:37:24.520Z,68.90
2022-09-23T09:39:51.240Z,67.60
2022-09-23T09:42:20.706Z,69.20
2022-09-23T09:44:49.523Z,71.20
2022-09-23T09:47:30.949Z,68.00
2022-09-23T09:50:04.123Z,69.30
2022-09-23T09:52:31.692Z,71.90
2022-09-23T09:55:15.165Z,70.20
2022-09-23T09:57:43.509Z,70.70
2022-09-23T10:00:17.802Z,67.60
2022-09-23T10:02:51.566Z,68.40
2022-09-23T10:05:25.799Z,67.50
2022-09-23T10:07:54.688Z,66.90
2022-09-23T10:10:33.571Z,67.10
2022-09-23T10:13:13.217Z,69.50
2022-09-23T10:15:44.675Z,68.50
2022-09-23T10:18:19.011Z,71.10
2022-09-23T10:20:45.829Z,90.30
2022-09-23T10:23:15.665Z,69.00
2022-09-23T10:25:42.671Z,86.90
2022-09-23T10:28:32.757Z,71.60
2022-09-23T10:31:07.874Z,74.50
2022-09-23T10:33:43.933Z,67.40
2022-09-23T10:38:38.890Z,69.40
2022-09-23T10:41:31.943Z,68.00
2022-09-23T10:44:29.352Z,66.80
2022-09-23T10:47:08.418Z,67.80
2022-09-23T10:49:46.911Z,68.10
2022-09-23T10:52:38.485Z,66.80
2022-09-23T10:55:17.895Z,66.60
2022-09-23T10:58:03.532Z,66.90
2022-09-23T11:00:40.567Z,71.60
2022-09-23T11:03:31.456Z,69.20
2022-09-23T11:06:08.231Z,69.00
2022-09-23T11:08:52.915Z,77.10
2022-09-23T11:11:33.425Z,72.80
2022-09-23T11:14:39.988Z,70.00
2022-09-23T11:17:29.936Z,68.10
2022-09-23T11:20:21.256Z,69.30
2022-09-23T11:23:12.178Z,68.80
2022-09-23T11:25:50.297Z,69.20
2022-09-23T11:28:46.662Z,71.90
2022-09-23T11:31:24.269Z,70.00
2022-09-23T11:34:04.569Z,66.00
2022-09-23T11:36:35.434Z,66.10
2022-09-23T11:39:08.457Z,68.30
2022-09-23T11:41:38.714Z,66.10
2022-09-23T11:44:11.931Z,64.60
2022-09-23T11:46:42.566Z,65.30
2022-09-23T11:49:14.843Z,61.60
2022-09-23T11:51:55.378Z,62.50
2022-09-23T11:54:27.702Z,62.00
2022-09-23T11:56:57.034Z,62.60
2022-09-23T11:59:39.524Z,62.90
2022-09-23T12:02:19.497Z,59.10
2022-09-23T12:04:56.855Z,59.30
2022-09-23T12:07:28.818Z,59.90
2022-09-23T12:09:58.671Z,60.20
2022-09-23T12:12:28.966Z,57.80
2022-09-23T12:14:58.845Z,55.00
2022-09-23T12:17:34.563Z,56.80
2022-09-23T12:20:10.472Z,59.10
2022-09-23T12:22:43.212Z,62.40
2022-09-23T12:25:19.558Z,61.90
2022-09-23T12:27:47.849Z,62.30
2022-09-23T12:30:17.475Z,61.30
2022-09-23T12:32:43.967Z,62.40
2022-09-23T12:35:21.111Z,62.40
2022-09-23T12:37:48.144Z,68.20
2022-09-23T12:40:21.789Z,71.10
2022-09-23T12:42:49.219Z,70.90
2022-09-23T12:45:37.064Z,73.90
2022-09-23T12:48:24.190Z,73.40
2022-09-23T12:50:54.832Z,74.40
2022-09-23T12:53:55.204Z,76.50
2022-09-23T12:56:44.373Z,75.30
2022-09-23T12:59:24.642Z,75.60
2022-09-23T13:04:53.033Z,80.80
2022-09-23T13:07:25.160Z,82.20
2022-09-23T13:09:56.305Z,79.20
2022-09-23T13:12:28.093Z,77.10
2022-09-23T13:14:59.870Z,77.70
2022-09-23T13:17:32.310Z,75.40
2022-09-23T13:20:01.792Z,77.40
2022-09-23T13:23:03.832Z,77.30
2022-09-23T13:25:33.481Z,75.60
2022-09-23T13:28:02.248Z,77.60
2022-09-23T13:33:06.178Z,79.90
2022-09-23T13:35:36.442Z,88.50
2022-09-23T13:38:10.661Z,80.90
2022-09-23T13:40:40.684Z,77.70
2022-09-23T13:43:15.503Z,79.00
2022-09-23T13:48:15.094Z,80.80
2022-09-23T13:50:47.853Z,80.90
2022-09-23T13:53:21.418Z,83.80
2022-09-23T13:56:00.746Z,81.20
2022-09-23T13:58:29.790Z,83.20
2022-09-23T14:03:26.860Z,83.70
2022-09-23T14:05:55.163Z,82.20
2022-09-23T14:08:22.585Z,82.60
2022-09-23T14:13:25.416Z,83.40
2022-09-23T14:15:54.817Z,83.10
2022-09-23T14:18:28.726Z,82.00
2022-09-23T14:23:26.506Z,94.60
2022-09-23T14:25:54.305Z,83.20
2022-09-23T14:28:22.887Z,83.10
2022-09-23T14:30:51.598Z,83.90
2022-09-23T14:33:22.824Z,83.20
2022-09-23T14:35:54.085Z,84.30
2022-09-23T14:38:42.038Z,83.70
2022-09-23T14:41:21.075Z,81.80
2022-09-23T14:43:51.061Z,82.60
2022-09-23T14:46:20.375Z,83.80
2022-09-23T14:48:56.402Z,81.20
2022-09-23T14:51:31.332Z,81.00
2022-09-23T14:54:23.007Z,81.40
2022-09-23T14:59:26.548Z,84.30
2022-09-23T15:04:30.254Z,84.60
2022-09-23T15:07:00.711Z,81.10
2022-09-23T15:09:30.886Z,82.10
2022-09-23T15:12:00.071Z,86.40
2022-09-23T15:14:38.704Z,87.20
2022-09-23T15:17:15.309Z,85.30
2022-09-23T15:22:10.392Z,85.10
2022-09-23T15:24:44.080Z,86.10
2022-09-23T15:27:25.134Z,88.00
2022-09-23T15:29:53.299Z,85.20
2022-09-23T15:34:49.882Z,86.70
2022-09-23T15:37:17.254Z,88.50
2022-09-23T15:47:05.293Z,88.00
2022-09-23T15:49:33.926Z,88.30
2022-09-23T15:52:02.588Z,87.20
2022-09-23T15:54:31.628Z,87.60
2022-09-23T16:01:56.056Z,89.10
2022-09-23T16:11:46.785Z,90.00
2022-09-23T16:14:14.552Z,90.90
2022-09-23T16:26:33.906Z,92.10
2022-09-23T16:29:01.694Z,93.10
2022-09-23T16:34:01.590Z,94.90
2022-09-23T16:36:30.391Z,96.40
2022-09-23T16:38:57.998Z,97.10
2022-09-23T16:41:26.967Z,98.80
2022-09-23T16:51:22.299Z,99.90
2022-09-23T16:53:50.000Z,99.90
2022-09-23T17:01:33.623Z,99.90
2022-09-23T17:07:50.489Z,99.90
2022-09-23T17:15:12.615Z,99.90
2022-09-23T17:47:08.564Z,99.90
2022-09-23T17:59:26.236Z,99.90
2022-09-23T18:11:44.194Z,99.90
2022-09-23T18:14:13.257Z,99.90
2022-09-23T18:16:43.412Z,99.90
2022-09-23T18:19:12.055Z,99.90
2022-09-23T18:21:41.392Z,99.90
2022-09-23T19:17:43.370Z,99.90
2022-09-23T19:22:46.701Z,99.90
2022-09-23T19:25:14.459Z,99.90
2022-09-23T19:30:11.052Z,99.90
2022-09-23T19:44:55.974Z,99.90
2022-09-23T20:02:11.429Z,99.90
2022-09-23T20:16:59.302Z,99.90
2022-09-23T20:37:13.952Z,99.90
2022-09-23T20:44:36.349Z,99.90
2022-09-23T20:47:03.646Z,99.90
2022-09-23T21:21:35.271Z,99.90
2022-09-23T21:36:47.109Z,99.90
2022-09-23T21:51:37.009Z,99.90
2022-09-23T21:54:10.332Z,99.90
2022-09-23T22:01:34.455Z,99.90
2022-09-23T22:04:04.470Z,99.90
2022-09-23T22:09:01.221Z,99.90
2022-09-23T22:11:48.141Z,99.90
2022-09-23T22:14:16.551Z,99.90
2022-09-23T23:14:18.683Z,99.90
